sensor_id;sensor_type;location;lat;lon;timestamp;temperature;humidity
24800;DHT22;12897;50.812;4.430;2022-08-19T00:00:40;20.10;99.90
24800;DHT22;12897;50.812;4.430;2022-08-19T00:03:07;20.10;99.90
24800;DHT22;12897;50.812;4.430;2022-08-19T00:05:35;20.10;99.90
24800;DHT22;12897;50.812;4.430;2022-08-19T00:08:03;20.20;99.90
24800;DHT22;12897;50.812;4.430;2022-08-19T00:10:31;20.20;99.90
24800;DHT22;12897;50.812;4.430;2022-08-19T00:13:00;20.10;99.90
24800;DHT22;12897;50.812;4.430;2022-08-19T00:15:28;20.10;99.90
24800;DHT22;12897;50.812;4.430;2022-08-19T00:17:55;20.00;99.90
24800;DHT22;12897;50.812;4.430;2022-08-19T00:20:23;20.00;99.90
24800;DHT22;12897;50.812;4.430;2022-08-19T00:22:50;20.10;99.90
24800;DHT22;12897;50.812;4.430;2022-08-19T00:25:18;20.10;99.90
24800;DHT22;12897;50.812;4.430;2022-08-19T00:27:45;20.20;99.90
24800;DHT22;12897;50.812;4.430;2022-08-19T00:30:14;20.30;99.90
24800;DHT22;12897;50.812;4.430;2022-08-19T00:32:41;20.40;99.90
24800;DHT22;12897;50.812;4.430;2022-08-19T00:35:09;20.50;99.90
24800;DHT22;12897;50.812;4.430;2022-08-19T00:37:38;20.50;99.90
24800;DHT22;12897;50.812;4.430;2022-08-19T00:40:08;20.50;99.90
24800;DHT22;12897;50.812;4.430;2022-08-19T00:42:35;20.60;99.90
24800;DHT22;12897;50.812;4.430;2022-08-19T00:45:08;20.70;99.90
24800;DHT22;12897;50.812;4.430;2022-08-19T00:47:34;20.80;99.90
24800;DHT22;12897;50.812;4.430;2022-08-19T00:50:02;20.90;99.90
24800;DHT22;12897;50.812;4.430;2022-08-19T00:52:35;20.90;99.90
24800;DHT22;12897;50.812;4.430;2022-08-19T00:55:05;21.00;99.90
24800;DHT22;12897;50.812;4.430;2022-08-19T00:57:38;21.10;99.90
24800;DHT22;12897;50.812;4.430;2022-08-19T01:00:10;21.20;99.90
24800;DHT22;12897;50.812;4.430;2022-08-19T01:02:39;21.10;99.90
24800;DHT22;12897;50.812;4.430;2022-08-19T01:05:13;21.00;99.90
24800;DHT22;12897;50.812;4.430;2022-08-19T01:07:41;20.90;99.90
24800;DHT22;12897;50.812;4.430;2022-08-19T01:10:12;20.90;99.90
24800;DHT22;12897;50.812;4.430;2022-08-19T01:12:40;20.90;99.90
24800;DHT22;12897;50.812;4.430;2022-08-19T01:15:10;20.90;99.90
24800;DHT22;12897;50.812;4.430;2022-08-19T01:17:40;20.90;99.90
24800;DHT22;12897;50.812;4.430;2022-08-19T01:20:11;20.90;99.90
24800;DHT22;12897;50.812;4.430;2022-08-19T01:22:50;20.80;99.90
24800;DHT22;12897;50.812;4.430;2022-08-19T01:25:09;20.70;99.90
24800;DHT22;12897;50.812;4.430;2022-08-19T01:27:39;20.60;99.90
24800;DHT22;12897;50.812;4.430;2022-08-19T01:30:07;20.60;99.90
24800;DHT22;12897;50.812;4.430;2022-08-19T01:32:34;20.50;99.90
24800;DHT22;12897;50.812;4.430;2022-08-19T01:35:04;20.40;99.90
24800;DHT22;12897;50.812;4.430;2022-08-19T01:37:43;20.30;99.90
24800;DHT22;12897;50.812;4.430;2022-08-19T01:40:12;20.30;99.90
24800;DHT22;12897;50.812;4.430;2022-08-19T01:42:40;20.40;99.90
24800;DHT22;12897;50.812;4.430;2022-08-19T01:45:08;20.30;99.90
24800;DHT22;12897;50.812;4.430;2022-08-19T01:47:37;20.20;99.90
24800;DHT22;12897;50.812;4.430;2022-08-19T01:50:06;20.10;99.90
24800;DHT22;12897;50.812;4.430;2022-08-19T01:52:37;20.00;99.90
24800;DHT22;12897;50.812;4.430;2022-08-19T01:55:07;20.00;99.90
24800;DHT22;12897;50.812;4.430;2022-08-19T01:57:35;20.10;99.90
24800;DHT22;12897;50.812;4.430;2022-08-19T02:00:05;20.00;99.90
24800;DHT22;12897;50.812;4.430;2022-08-19T02:02:33;19.90;99.90
24800;DHT22;12897;50.812;4.430;2022-08-19T02:05:01;19.90;99.90
24800;DHT22;12897;50.812;4.430;2022-08-19T02:07:28;19.80;99.90
24800;DHT22;12897;50.812;4.430;2022-08-19T02:09:56;19.80;99.90
24800;DHT22;12897;50.812;4.430;2022-08-19T02:12:24;19.80;99.90
24800;DHT22;12897;50.812;4.430;2022-08-19T02:14:51;19.90;99.90
24800;DHT22;12897;50.812;4.430;2022-08-19T02:17:19;19.80;99.90
24800;DHT22;12897;50.812;4.430;2022-08-19T02:19:46;19.90;99.90
24800;DHT22;12897;50.812;4.430;2022-08-19T02:22:15;19.90;99.90
24800;DHT22;12897;50.812;4.430;2022-08-19T02:24:42;19.90;99.90
24800;DHT22;12897;50.812;4.430;2022-08-19T02:27:11;19.80;99.90
24800;DHT22;12897;50.812;4.430;2022-08-19T02:29:38;19.80;99.90
24800;DHT22;12897;50.812;4.430;2022-08-19T02:32:07;19.80;99.90
24800;DHT22;12897;50.812;4.430;2022-08-19T02:34:35;19.70;99.90
24800;DHT22;12897;50.812;4.430;2022-08-19T02:37:02;19.70;99.90
24800;DHT22;12897;50.812;4.430;2022-08-19T02:39:30;19.60;99.90
24800;DHT22;12897;50.812;4.430;2022-08-19T02:41:57;19.60;99.90
24800;DHT22;12897;50.812;4.430;2022-08-19T02:44:25;19.60;99.90
24800;DHT22;12897;50.812;4.430;2022-08-19T02:47:14;19.50;99.90
24800;DHT22;12897;50.812;4.430;2022-08-19T02:49:41;19.40;99.90
24800;DHT22;12897;50.812;4.430;2022-08-19T02:52:09;19.30;99.90
24800;DHT22;12897;50.812;4.430;2022-08-19T02:54:38;19.30;99.90
24800;DHT22;12897;50.812;4.430;2022-08-19T02:57:05;19.20;99.90
24800;DHT22;12897;50.812;4.430;2022-08-19T02:59:34;19.10;99.90
24800;DHT22;12897;50.812;4.430;2022-08-19T03:02:02;19.10;99.90
24800;DHT22;12897;50.812;4.430;2022-08-19T03:04:29;19.20;99.90
24800;DHT22;12897;50.812;4.430;2022-08-19T03:06:57;19.10;99.90
24800;DHT22;12897;50.812;4.430;2022-08-19T03:09:24;19.20;99.90
24800;DHT22;12897;50.812;4.430;2022-08-19T03:11:52;19.30;99.90
24800;DHT22;12897;50.812;4.430;2022-08-19T03:14:19;19.30;99.90
24800;DHT22;12897;50.812;4.430;2022-08-19T03:16:51;19.20;99.90
24800;DHT22;12897;50.812;4.430;2022-08-19T03:19:20;19.20;99.90
24800;DHT22;12897;50.812;4.430;2022-08-19T03:21:48;19.20;99.90
24800;DHT22;12897;50.812;4.430;2022-08-19T03:24:16;19.10;99.90
24800;DHT22;12897;50.812;4.430;2022-08-19T03:26:48;19.00;99.90
24800;DHT22;12897;50.812;4.430;2022-08-19T03:29:17;19.10;99.90
24800;DHT22;12897;50.812;4.430;2022-08-19T03:31:45;19.20;99.90
24800;DHT22;12897;50.812;4.430;2022-08-19T03:34:15;19.20;99.90
24800;DHT22;12897;50.812;4.430;2022-08-19T03:36:44;19.10;99.90
24800;DHT22;12897;50.812;4.430;2022-08-19T03:39:13;19.00;99.90
24800;DHT22;12897;50.812;4.430;2022-08-19T03:41:43;18.90;99.90
24800;DHT22;12897;50.812;4.430;2022-08-19T03:44:13;18.80;99.90
24800;DHT22;12897;50.812;4.430;2022-08-19T03:46:40;18.90;99.90
24800;DHT22;12897;50.812;4.430;2022-08-19T03:49:08;18.90;99.90
24800;DHT22;12897;50.812;4.430;2022-08-19T03:51:37;18.80;99.90
24800;DHT22;12897;50.812;4.430;2022-08-19T03:54:07;18.90;99.90
24800;DHT22;12897;50.812;4.430;2022-08-19T03:56:38;18.90;99.90
24800;DHT22;12897;50.812;4.430;2022-08-19T03:59:09;18.80;99.90
24800;DHT22;12897;50.812;4.430;2022-08-19T04:01:37;18.80;99.90
24800;DHT22;12897;50.812;4.430;2022-08-19T04:04:05;18.80;99.90
24800;DHT22;12897;50.812;4.430;2022-08-19T04:06:35;18.80;99.90
24800;DHT22;12897;50.812;4.430;2022-08-19T04:09:05;19.00;99.90
24800;DHT22;12897;50.812;4.430;2022-08-19T04:11:38;18.90;99.90
24800;DHT22;12897;50.812;4.430;2022-08-19T04:14:09;18.70;99.90
24800;DHT22;12897;50.812;4.430;2022-08-19T04:16:37;18.70;99.90
24800;DHT22;12897;50.812;4.430;2022-08-19T04:19:06;18.60;99.90
24800;DHT22;12897;50.812;4.430;2022-08-19T04:21:34;18.40;99.90
24800;DHT22;12897;50.812;4.430;2022-08-19T04:24:02;18.50;99.90
24800;DHT22;12897;50.812;4.430;2022-08-19T04:26:33;18.50;99.90
24800;DHT22;12897;50.812;4.430;2022-08-19T04:29:04;18.40;99.90
24800;DHT22;12897;50.812;4.430;2022-08-19T04:31:32;18.40;99.90
24800;DHT22;12897;50.812;4.430;2022-08-19T04:34:06;18.40;99.90
24800;DHT22;12897;50.812;4.430;2022-08-19T04:36:35;18.40;99.90
24800;DHT22;12897;50.812;4.430;2022-08-19T04:39:06;18.30;99.90
24800;DHT22;12897;50.812;4.430;2022-08-19T04:41:35;18.30;99.90
24800;DHT22;12897;50.812;4.430;2022-08-19T04:44:41;18.30;99.90
24800;DHT22;12897;50.812;4.430;2022-08-19T04:46:56;18.30;99.90
24800;DHT22;12897;50.812;4.430;2022-08-19T04:49:24;18.30;99.90
24800;DHT22;12897;50.812;4.430;2022-08-19T04:51:53;18.30;99.90
24800;DHT22;12897;50.812;4.430;2022-08-19T04:54:23;18.30;99.90
24800;DHT22;12897;50.812;4.430;2022-08-19T04:56:52;18.40;99.90
24800;DHT22;12897;50.812;4.430;2022-08-19T04:59:21;18.40;99.90
24800;DHT22;12897;50.812;4.430;2022-08-19T05:01:48;18.40;99.90
24800;DHT22;12897;50.812;4.430;2022-08-19T05:04:18;18.50;99.90
24800;DHT22;12897;50.812;4.430;2022-08-19T05:06:47;18.50;99.90
24800;DHT22;12897;50.812;4.430;2022-08-19T05:09:15;18.60;99.90
24800;DHT22;12897;50.812;4.430;2022-08-19T05:11:44;18.50;99.90
24800;DHT22;12897;50.812;4.430;2022-08-19T05:14:12;18.50;99.90
24800;DHT22;12897;50.812;4.430;2022-08-19T05:16:40;18.50;99.90
24800;DHT22;12897;50.812;4.430;2022-08-19T05:19:08;18.50;99.90
24800;DHT22;12897;50.812;4.430;2022-08-19T05:21:54;18.50;99.90
24800;DHT22;12897;50.812;4.430;2022-08-19T05:24:40;18.50;99.90
24800;DHT22;12897;50.812;4.430;2022-08-19T05:27:08;18.60;99.90
24800;DHT22;12897;50.812;4.430;2022-08-19T05:29:35;18.50;99.90
24800;DHT22;12897;50.812;4.430;2022-08-19T05:32:04;18.70;99.90
24800;DHT22;12897;50.812;4.430;2022-08-19T05:34:34;18.60;99.90
24800;DHT22;12897;50.812;4.430;2022-08-19T05:37:02;18.60;99.90
24800;DHT22;12897;50.812;4.430;2022-08-19T05:39:33;18.60;99.90
24800;DHT22;12897;50.812;4.430;2022-08-19T05:42:09;18.60;99.90
24800;DHT22;12897;50.812;4.430;2022-08-19T05:44:40;18.80;99.90
24800;DHT22;12897;50.812;4.430;2022-08-19T05:47:10;19.00;99.90
24800;DHT22;12897;50.812;4.430;2022-08-19T05:49:38;19.10;99.90
24800;DHT22;12897;50.812;4.430;2022-08-19T05:52:09;19.40;99.90
24800;DHT22;12897;50.812;4.430;2022-08-19T05:54:38;19.70;99.90
24800;DHT22;12897;50.812;4.430;2022-08-19T05:57:08;20.10;99.90
24800;DHT22;12897;50.812;4.430;2022-08-19T05:59:36;20.50;99.90
24800;DHT22;12897;50.812;4.430;2022-08-19T06:02:05;20.60;99.90
24800;DHT22;12897;50.812;4.430;2022-08-19T06:04:33;20.50;99.90
24800;DHT22;12897;50.812;4.430;2022-08-19T06:07:00;20.50;99.90
24800;DHT22;12897;50.812;4.430;2022-08-19T06:09:28;20.40;99.90
24800;DHT22;12897;50.812;4.430;2022-08-19T06:11:58;20.60;99.90
24800;DHT22;12897;50.812;4.430;2022-08-19T06:14:29;20.70;99.90
24800;DHT22;12897;50.812;4.430;2022-08-19T06:16:57;20.70;99.90
24800;DHT22;12897;50.812;4.430;2022-08-19T06:19:26;20.80;99.90
24800;DHT22;12897;50.812;4.430;2022-08-19T06:21:57;20.70;99.90
24800;DHT22;12897;50.812;4.430;2022-08-19T06:24:28;20.60;99.90
24800;DHT22;12897;50.812;4.430;2022-08-19T06:26:57;20.60;99.90
24800;DHT22;12897;50.812;4.430;2022-08-19T06:29:26;21.10;99.90
24800;DHT22;12897;50.812;4.430;2022-08-19T06:31:55;21.30;99.90
24800;DHT22;12897;50.812;4.430;2022-08-19T06:34:23;21.40;99.90
24800;DHT22;12897;50.812;4.430;2022-08-19T06:36:52;21.30;99.90
24800;DHT22;12897;50.812;4.430;2022-08-19T06:39:28;21.30;99.90
24800;DHT22;12897;50.812;4.430;2022-08-19T06:41:53;21.30;99.90
24800;DHT22;12897;50.812;4.430;2022-08-19T06:44:23;21.10;99.90
24800;DHT22;12897;50.812;4.430;2022-08-19T06:46:53;21.10;99.90
24800;DHT22;12897;50.812;4.430;2022-08-19T06:49:22;21.40;99.90
24800;DHT22;12897;50.812;4.430;2022-08-19T06:51:50;21.50;99.90
24800;DHT22;12897;50.812;4.430;2022-08-19T06:54:19;21.50;99.90
24800;DHT22;12897;50.812;4.430;2022-08-19T06:56:47;21.40;99.90
24800;DHT22;12897;50.812;4.430;2022-08-19T06:59:17;21.30;99.90
24800;DHT22;12897;50.812;4.430;2022-08-19T07:01:48;21.40;99.90
24800;DHT22;12897;50.812;4.430;2022-08-19T07:04:18;21.30;99.90
24800;DHT22;12897;50.812;4.430;2022-08-19T07:06:45;21.00;99.90
24800;DHT22;12897;50.812;4.430;2022-08-19T07:09:15;20.80;99.90
24800;DHT22;12897;50.812;4.430;2022-08-19T07:11:47;20.90;99.90
24800;DHT22;12897;50.812;4.430;2022-08-19T07:14:17;21.10;99.90
24800;DHT22;12897;50.812;4.430;2022-08-19T07:16:48;21.30;99.90
24800;DHT22;12897;50.812;4.430;2022-08-19T07:19:17;21.50;99.90
24800;DHT22;12897;50.812;4.430;2022-08-19T07:21:47;21.60;99.90
24800;DHT22;12897;50.812;4.430;2022-08-19T07:24:16;21.50;99.90
24800;DHT22;12897;50.812;4.430;2022-08-19T07:26:45;21.50;99.90
24800;DHT22;12897;50.812;4.430;2022-08-19T07:29:13;21.50;99.90
24800;DHT22;12897;50.812;4.430;2022-08-19T07:31:41;21.60;99.90
24800;DHT22;12897;50.812;4.430;2022-08-19T07:34:10;21.70;99.90
24800;DHT22;12897;50.812;4.430;2022-08-19T07:36:41;21.70;99.90
24800;DHT22;12897;50.812;4.430;2022-08-19T07:39:14;21.90;99.90
24800;DHT22;12897;50.812;4.430;2022-08-19T07:41:43;21.90;99.90
24800;DHT22;12897;50.812;4.430;2022-08-19T07:44:12;21.70;99.90
24800;DHT22;12897;50.812;4.430;2022-08-19T07:46:42;21.50;99.90
24800;DHT22;12897;50.812;4.430;2022-08-19T07:49:11;21.60;99.90
24800;DHT22;12897;50.812;4.430;2022-08-19T07:51:40;21.70;99.90
24800;DHT22;12897;50.812;4.430;2022-08-19T07:54:08;21.80;99.90
24800;DHT22;12897;50.812;4.430;2022-08-19T07:56:35;21.90;99.90
24800;DHT22;12897;50.812;4.430;2022-08-19T07:59:03;21.90;99.90
24800;DHT22;12897;50.812;4.430;2022-08-19T08:01:31;21.90;99.90
24800;DHT22;12897;50.812;4.430;2022-08-19T08:03:58;22.00;99.90
24800;DHT22;12897;50.812;4.430;2022-08-19T08:06:51;22.30;99.90
24800;DHT22;12897;50.812;4.430;2022-08-19T08:09:36;22.20;99.90
24800;DHT22;12897;50.812;4.430;2022-08-19T08:12:08;22.10;99.90
24800;DHT22;12897;50.812;4.430;2022-08-19T08:14:44;22.20;99.90
24800;DHT22;12897;50.812;4.430;2022-08-19T08:17:09;22.30;99.90
24800;DHT22;12897;50.812;4.430;2022-08-19T08:19:36;22.20;99.90
24800;DHT22;12897;50.812;4.430;2022-08-19T08:22:07;22.20;99.90
24800;DHT22;12897;50.812;4.430;2022-08-19T08:24:36;22.50;99.90
24800;DHT22;12897;50.812;4.430;2022-08-19T08:27:04;22.80;99.90
24800;DHT22;12897;50.812;4.430;2022-08-19T08:29:32;22.90;99.90
24800;DHT22;12897;50.812;4.430;2022-08-19T08:32:00;23.00;99.90
24800;DHT22;12897;50.812;4.430;2022-08-19T08:34:27;22.90;99.90
24800;DHT22;12897;50.812;4.430;2022-08-19T08:36:55;22.90;99.90
24800;DHT22;12897;50.812;4.430;2022-08-19T08:39:22;23.10;99.90
24800;DHT22;12897;50.812;4.430;2022-08-19T08:42:07;23.10;99.90
24800;DHT22;12897;50.812;4.430;2022-08-19T08:45:00;23.00;99.90
24800;DHT22;12897;50.812;4.430;2022-08-19T08:47:26;23.00;99.90
24800;DHT22;12897;50.812;4.430;2022-08-19T08:50:00;23.10;99.90
24800;DHT22;12897;50.812;4.430;2022-08-19T08:52:36;23.30;99.90
24800;DHT22;12897;50.812;4.430;2022-08-19T08:55:08;23.20;99.90
24800;DHT22;12897;50.812;4.430;2022-08-19T08:57:44;23.10;99.90
24800;DHT22;12897;50.812;4.430;2022-08-19T09:00:12;23.10;99.90
24800;DHT22;12897;50.812;4.430;2022-08-19T09:02:39;23.00;99.90
24800;DHT22;12897;50.812;4.430;2022-08-19T09:05:08;23.30;99.90
24800;DHT22;12897;50.812;4.430;2022-08-19T09:08:00;23.40;99.90
24800;DHT22;12897;50.812;4.430;2022-08-19T09:10:38;23.30;99.90
24800;DHT22;12897;50.812;4.430;2022-08-19T09:13:17;23.10;99.90
24800;DHT22;12897;50.812;4.430;2022-08-19T09:15:45;22.80;99.90
24800;DHT22;12897;50.812;4.430;2022-08-19T09:18:15;22.70;99.90
24800;DHT22;12897;50.812;4.430;2022-08-19T09:20:43;22.60;99.90
24800;DHT22;12897;50.812;4.430;2022-08-19T09:23:10;22.80;99.90
24800;DHT22;12897;50.812;4.430;2022-08-19T09:25:38;23.10;99.90
24800;DHT22;12897;50.812;4.430;2022-08-19T09:28:06;23.10;99.90
24800;DHT22;12897;50.812;4.430;2022-08-19T09:30:39;23.00;99.90
24800;DHT22;12897;50.812;4.430;2022-08-19T09:33:07;23.20;99.90
24800;DHT22;12897;50.812;4.430;2022-08-19T09:35:35;23.40;99.90
24800;DHT22;12897;50.812;4.430;2022-08-19T09:38:02;23.50;99.90
24800;DHT22;12897;50.812;4.430;2022-08-19T09:40:30;23.60;99.90
24800;DHT22;12897;50.812;4.430;2022-08-19T09:42:58;23.40;99.90
24800;DHT22;12897;50.812;4.430;2022-08-19T09:45:28;23.10;99.90
24800;DHT22;12897;50.812;4.430;2022-08-19T09:47:56;22.90;99.90
24800;DHT22;12897;50.812;4.430;2022-08-19T09:50:24;22.80;99.90
24800;DHT22;12897;50.812;4.430;2022-08-19T09:52:52;22.80;99.90
24800;DHT22;12897;50.812;4.430;2022-08-19T09:55:20;23.00;99.90
24800;DHT22;12897;50.812;4.430;2022-08-19T09:57:48;23.20;99.90
24800;DHT22;12897;50.812;4.430;2022-08-19T10:00:15;23.30;99.90
24800;DHT22;12897;50.812;4.430;2022-08-19T10:02:43;23.50;99.90
24800;DHT22;12897;50.812;4.430;2022-08-19T10:05:10;23.40;99.90
24800;DHT22;12897;50.812;4.430;2022-08-19T10:07:42;23.80;99.90
24800;DHT22;12897;50.812;4.430;2022-08-19T10:10:10;24.10;99.90
24800;DHT22;12897;50.812;4.430;2022-08-19T10:12:38;24.20;99.90
24800;DHT22;12897;50.812;4.430;2022-08-19T10:15:06;24.40;99.90
24800;DHT22;12897;50.812;4.430;2022-08-19T10:17:35;24.70;99.90
24800;DHT22;12897;50.812;4.430;2022-08-19T10:20:03;25.00;99.90
24800;DHT22;12897;50.812;4.430;2022-08-19T10:22:31;25.40;99.90
24800;DHT22;12897;50.812;4.430;2022-08-19T10:24:58;25.20;99.90
24800;DHT22;12897;50.812;4.430;2022-08-19T10:27:26;24.80;99.90
24800;DHT22;12897;50.812;4.430;2022-08-19T10:29:53;24.70;99.90
24800;DHT22;12897;50.812;4.430;2022-08-19T10:32:21;24.40;99.90
24800;DHT22;12897;50.812;4.430;2022-08-19T10:34:48;24.50;99.90
24800;DHT22;12897;50.812;4.430;2022-08-19T10:37:18;24.50;99.90
24800;DHT22;12897;50.812;4.430;2022-08-19T10:39:46;24.50;99.90
24800;DHT22;12897;50.812;4.430;2022-08-19T10:42:14;24.30;99.90
24800;DHT22;12897;50.812;4.430;2022-08-19T10:44:43;24.40;99.90
24800;DHT22;12897;50.812;4.430;2022-08-19T10:47:12;24.40;99.90
24800;DHT22;12897;50.812;4.430;2022-08-19T10:49:39;24.10;99.90
24800;DHT22;12897;50.812;4.430;2022-08-19T10:52:09;24.30;99.90
24800;DHT22;12897;50.812;4.430;2022-08-19T10:54:54;24.20;99.90
24800;DHT22;12897;50.812;4.430;2022-08-19T10:57:40;24.10;99.90
24800;DHT22;12897;50.812;4.430;2022-08-19T11:00:08;24.40;99.90
24800;DHT22;12897;50.812;4.430;2022-08-19T11:02:36;24.50;99.90
24800;DHT22;12897;50.812;4.430;2022-08-19T11:05:03;24.40;99.90
24800;DHT22;12897;50.812;4.430;2022-08-19T11:07:32;24.30;99.90
24800;DHT22;12897;50.812;4.430;2022-08-19T11:09:59;24.10;99.90
24800;DHT22;12897;50.812;4.430;2022-08-19T11:12:28;24.00;99.90
24800;DHT22;12897;50.812;4.430;2022-08-19T11:14:55;24.60;99.90
24800;DHT22;12897;50.812;4.430;2022-08-19T11:17:23;24.90;99.90
24800;DHT22;12897;50.812;4.430;2022-08-19T11:19:50;25.00;99.90
24800;DHT22;12897;50.812;4.430;2022-08-19T11:22:18;24.70;99.90
24800;DHT22;12897;50.812;4.430;2022-08-19T11:24:46;24.30;99.90
24800;DHT22;12897;50.812;4.430;2022-08-19T11:27:13;24.00;99.90
24800;DHT22;12897;50.812;4.430;2022-08-19T11:29:41;23.90;99.90
24800;DHT22;12897;50.812;4.430;2022-08-19T11:32:10;24.00;99.90
24800;DHT22;12897;50.812;4.430;2022-08-19T11:34:39;24.10;99.90
24800;DHT22;12897;50.812;4.430;2022-08-19T11:37:07;24.00;99.90
24800;DHT22;12897;50.812;4.430;2022-08-19T11:39:36;24.30;99.90
24800;DHT22;12897;50.812;4.430;2022-08-19T11:42:05;24.30;99.90
24800;DHT22;12897;50.812;4.430;2022-08-19T11:44:34;24.10;99.90
24800;DHT22;12897;50.812;4.430;2022-08-19T11:47:02;24.10;99.90
24800;DHT22;12897;50.812;4.430;2022-08-19T11:49:29;24.10;99.90
24800;DHT22;12897;50.812;4.430;2022-08-19T11:51:57;24.30;99.90
24800;DHT22;12897;50.812;4.430;2022-08-19T11:54:24;24.50;99.90
24800;DHT22;12897;50.812;4.430;2022-08-19T11:56:52;24.60;99.90
24800;DHT22;12897;50.812;4.430;2022-08-19T11:59:19;24.80;99.90
24800;DHT22;12897;50.812;4.430;2022-08-19T12:01:47;24.80;99.90
24800;DHT22;12897;50.812;4.430;2022-08-19T12:04:14;24.70;99.90
24800;DHT22;12897;50.812;4.430;2022-08-19T12:06:42;24.50;99.90
24800;DHT22;12897;50.812;4.430;2022-08-19T12:09:10;24.50;99.90
24800;DHT22;12897;50.812;4.430;2022-08-19T12:11:38;24.70;99.90
24800;DHT22;12897;50.812;4.430;2022-08-19T12:14:11;25.30;99.90
24800;DHT22;12897;50.812;4.430;2022-08-19T12:16:40;25.70;99.90
24800;DHT22;12897;50.812;4.430;2022-08-19T12:19:08;26.10;99.90
24800;DHT22;12897;50.812;4.430;2022-08-19T12:21:36;26.20;99.90
24800;DHT22;12897;50.812;4.430;2022-08-19T12:24:05;26.20;99.90
24800;DHT22;12897;50.812;4.430;2022-08-19T12:26:32;26.50;99.90
24800;DHT22;12897;50.812;4.430;2022-08-19T12:29:00;26.10;99.90
24800;DHT22;12897;50.812;4.430;2022-08-19T12:31:28;26.20;99.90
24800;DHT22;12897;50.812;4.430;2022-08-19T12:33:56;26.20;99.90
24800;DHT22;12897;50.812;4.430;2022-08-19T12:36:24;26.10;99.90
24800;DHT22;12897;50.812;4.430;2022-08-19T12:38:53;26.30;99.90
24800;DHT22;12897;50.812;4.430;2022-08-19T12:41:21;26.30;99.90
24800;DHT22;12897;50.812;4.430;2022-08-19T12:43:49;26.20;99.90
24800;DHT22;12897;50.812;4.430;2022-08-19T12:46:17;26.20;99.90
24800;DHT22;12897;50.812;4.430;2022-08-19T12:48:46;26.00;99.90
24800;DHT22;12897;50.812;4.430;2022-08-19T12:51:16;26.10;99.90
24800;DHT22;12897;50.812;4.430;2022-08-19T12:53:47;26.10;99.90
24800;DHT22;12897;50.812;4.430;2022-08-19T12:56:16;26.30;99.90
24800;DHT22;12897;50.812;4.430;2022-08-19T12:58:45;26.40;99.90
24800;DHT22;12897;50.812;4.430;2022-08-19T13:01:15;26.50;99.90
24800;DHT22;12897;50.812;4.430;2022-08-19T13:03:45;26.40;99.90
24800;DHT22;12897;50.812;4.430;2022-08-19T13:06:14;26.30;99.90
24800;DHT22;12897;50.812;4.430;2022-08-19T13:08:42;26.30;99.90
24800;DHT22;12897;50.812;4.430;2022-08-19T13:11:12;26.60;99.90
24800;DHT22;12897;50.812;4.430;2022-08-19T13:13:42;26.70;99.90
24800;DHT22;12897;50.812;4.430;2022-08-19T13:16:11;26.60;99.90
24800;DHT22;12897;50.812;4.430;2022-08-19T13:18:41;26.50;99.90
24800;DHT22;12897;50.812;4.430;2022-08-19T13:21:10;26.20;99.90
24800;DHT22;12897;50.812;4.430;2022-08-19T13:23:42;26.10;99.90
24800;DHT22;12897;50.812;4.430;2022-08-19T13:26:12;26.10;99.90
24800;DHT22;12897;50.812;4.430;2022-08-19T13:28:40;26.30;99.90
24800;DHT22;12897;50.812;4.430;2022-08-19T13:31:27;26.30;99.90
24800;DHT22;12897;50.812;4.430;2022-08-19T13:34:14;26.00;99.90
24800;DHT22;12897;50.812;4.430;2022-08-19T13:36:42;25.90;99.90
24800;DHT22;12897;50.812;4.430;2022-08-19T13:39:10;26.10;99.90
24800;DHT22;12897;50.812;4.430;2022-08-19T13:41:42;26.30;99.90
24800;DHT22;12897;50.812;4.430;2022-08-19T13:44:07;26.40;99.90
24800;DHT22;12897;50.812;4.430;2022-08-19T13:46:54;26.50;99.90
24800;DHT22;12897;50.812;4.430;2022-08-19T13:49:22;26.70;99.90
24800;DHT22;12897;50.812;4.430;2022-08-19T13:51:50;26.70;99.90
24800;DHT22;12897;50.812;4.430;2022-08-19T13:54:17;26.50;99.90
24800;DHT22;12897;50.812;4.430;2022-08-19T13:56:45;26.50;99.90
24800;DHT22;12897;50.812;4.430;2022-08-19T13:59:13;26.40;99.90
24800;DHT22;12897;50.812;4.430;2022-08-19T14:01:41;26.40;99.90
24800;DHT22;12897;50.812;4.430;2022-08-19T14:04:08;26.40;99.90
24800;DHT22;12897;50.812;4.430;2022-08-19T14:06:36;26.20;99.90
24800;DHT22;12897;50.812;4.430;2022-08-19T14:09:04;26.20;99.90
24800;DHT22;12897;50.812;4.430;2022-08-19T14:11:32;26.20;99.90
24800;DHT22;12897;50.812;4.430;2022-08-19T14:13:59;26.20;99.90
24800;DHT22;12897;50.812;4.430;2022-08-19T14:16:27;26.20;99.90
24800;DHT22;12897;50.812;4.430;2022-08-19T14:18:56;26.00;99.90
24800;DHT22;12897;50.812;4.430;2022-08-19T14:21:24;25.80;99.90
24800;DHT22;12897;50.812;4.430;2022-08-19T14:23:52;25.60;99.90
24800;DHT22;12897;50.812;4.430;2022-08-19T14:26:21;25.50;99.90
24800;DHT22;12897;50.812;4.430;2022-08-19T14:28:49;25.40;99.90
24800;DHT22;12897;50.812;4.430;2022-08-19T14:31:19;25.70;99.90
24800;DHT22;12897;50.812;4.430;2022-08-19T14:33:48;25.60;99.90
24800;DHT22;12897;50.812;4.430;2022-08-19T14:36:17;25.40;99.90
24800;DHT22;12897;50.812;4.430;2022-08-19T14:38:46;25.10;99.90
24800;DHT22;12897;50.812;4.430;2022-08-19T14:41:17;24.90;99.90
24800;DHT22;12897;50.812;4.430;2022-08-19T14:43:47;24.60;99.90
24800;DHT22;12897;50.812;4.430;2022-08-19T14:46:18;24.50;99.90
24800;DHT22;12897;50.812;4.430;2022-08-19T14:48:47;24.40;99.90
24800;DHT22;12897;50.812;4.430;2022-08-19T14:51:16;24.20;99.90
24800;DHT22;12897;50.812;4.430;2022-08-19T14:53:45;23.90;99.90
24800;DHT22;12897;50.812;4.430;2022-08-19T14:56:14;23.80;99.90
24800;DHT22;12897;50.812;4.430;2022-08-19T14:58:44;23.90;99.90
24800;DHT22;12897;50.812;4.430;2022-08-19T15:01:12;24.20;99.90
24800;DHT22;12897;50.812;4.430;2022-08-19T15:03:40;24.30;99.90
24800;DHT22;12897;50.812;4.430;2022-08-19T15:06:08;24.50;99.90
24800;DHT22;12897;50.812;4.430;2022-08-19T15:08:37;24.90;99.90
24800;DHT22;12897;50.812;4.430;2022-08-19T15:11:10;25.40;99.90
24800;DHT22;12897;50.812;4.430;2022-08-19T15:13:38;25.20;99.90
24800;DHT22;12897;50.812;4.430;2022-08-19T15:16:06;25.10;99.90
24800;DHT22;12897;50.812;4.430;2022-08-19T15:18:35;25.10;99.90
24800;DHT22;12897;50.812;4.430;2022-08-19T15:21:04;24.90;99.90
24800;DHT22;12897;50.812;4.430;2022-08-19T15:23:31;24.80;99.90
24800;DHT22;12897;50.812;4.430;2022-08-19T15:25:59;24.80;99.90
24800;DHT22;12897;50.812;4.430;2022-08-19T15:28:26;24.80;99.90
24800;DHT22;12897;50.812;4.430;2022-08-19T15:30:54;24.60;99.90
24800;DHT22;12897;50.812;4.430;2022-08-19T15:33:21;24.50;99.90
24800;DHT22;12897;50.812;4.430;2022-08-19T15:35:49;24.60;99.90
24800;DHT22;12897;50.812;4.430;2022-08-19T15:38:18;24.70;99.90
24800;DHT22;12897;50.812;4.430;2022-08-19T15:40:48;24.80;99.90
24800;DHT22;12897;50.812;4.430;2022-08-19T15:43:17;24.90;99.90